sensor_id;sensor_type;location;lat;lon;timestamp;temperature;humidity
37788;DHT22;23627;53.302;-6.362;2023-02-28T00:00:18;7.50;99.90
37788;DHT22;23627;53.302;-6.362;2023-02-28T00:02:44;7.50;99.90
37788;DHT22;23627;53.302;-6.362;2023-02-28T00:05:11;7.50;99.90
37788;DHT22;23627;53.302;-6.362;2023-02-28T00:07:37;7.50;99.90
37788;DHT22;23627;53.302;-6.362;2023-02-28T00:10:04;7.50;99.90
37788;DHT22;23627;53.302;-6.362;2023-02-28T00:12:31;7.50;99.90
37788;DHT22;23627;53.302;-6.362;2023-02-28T00:14:57;7.50;99.90
37788;DHT22;23627;53.302;-6.362;2023-02-28T00:17:23;7.50;99.90
37788;DHT22;23627;53.302;-6.362;2023-02-28T00:19:49;7.50;99.90
37788;DHT22;23627;53.302;-6.362;2023-02-28T00:22:15;7.40;99.90
37788;DHT22;23627;53.302;-6.362;2023-02-28T00:24:41;7.40;99.90
37788;DHT22;23627;53.302;-6.362;2023-02-28T00:27:07;7.40;99.90
37788;DHT22;23627;53.302;-6.362;2023-02-28T00:29:32;7.50;99.90
37788;DHT22;23627;53.302;-6.362;2023-02-28T00:31:58;7.40;99.90
37788;DHT22;23627;53.302;-6.362;2023-02-28T00:34:24;7.40;99.90
37788;DHT22;23627;53.302;-6.362;2023-02-28T00:36:49;7.50;99.90
37788;DHT22;23627;53.302;-6.362;2023-02-28T00:39:15;7.50;99.90
37788;DHT22;23627;53.302;-6.362;2023-02-28T00:41:41;7.50;99.90
37788;DHT22;23627;53.302;-6.362;2023-02-28T00:44:06;7.50;99.90
37788;DHT22;23627;53.302;-6.362;2023-02-28T00:46:32;7.50;99.90
37788;DHT22;23627;53.302;-6.362;2023-02-28T00:48:57;7.50;99.90
37788;DHT22;23627;53.302;-6.362;2023-02-28T00:51:23;7.40;99.90
37788;DHT22;23627;53.302;-6.362;2023-02-28T00:53:48;7.50;99.90
37788;DHT22;23627;53.302;-6.362;2023-02-28T00:56:14;7.40;99.90
37788;DHT22;23627;53.302;-6.362;2023-02-28T00:58:40;7.40;99.90
37788;DHT22;23627;53.302;-6.362;2023-02-28T01:01:05;7.40;99.90
37788;DHT22;23627;53.302;-6.362;2023-02-28T01:03:31;7.50;99.90
37788;DHT22;23627;53.302;-6.362;2023-02-28T01:05:57;7.40;99.90
37788;DHT22;23627;53.302;-6.362;2023-02-28T01:08:23;7.40;99.90
37788;DHT22;23627;53.302;-6.362;2023-02-28T01:10:48;7.50;99.90
37788;DHT22;23627;53.302;-6.362;2023-02-28T01:13:15;7.40;99.90
37788;DHT22;23627;53.302;-6.362;2023-02-28T01:15:41;7.50;99.90
37788;DHT22;23627;53.302;-6.362;2023-02-28T01:18:08;7.40;99.90
37788;DHT22;23627;53.302;-6.362;2023-02-28T01:20:36;7.40;99.90
37788;DHT22;23627;53.302;-6.362;2023-02-28T01:23:02;7.40;99.90
37788;DHT22;23627;53.302;-6.362;2023-02-28T01:25:27;7.40;99.90
37788;DHT22;23627;53.302;-6.362;2023-02-28T01:27:53;7.40;99.90
37788;DHT22;23627;53.302;-6.362;2023-02-28T01:30:18;7.40;99.90
37788;DHT22;23627;53.302;-6.362;2023-02-28T01:32:44;7.40;99.90
37788;DHT22;23627;53.302;-6.362;2023-02-28T01:35:10;7.40;99.90
37788;DHT22;23627;53.302;-6.362;2023-02-28T01:37:36;7.40;99.90
37788;DHT22;23627;53.302;-6.362;2023-02-28T01:40:01;7.40;99.90
37788;DHT22;23627;53.302;-6.362;2023-02-28T01:42:27;7.40;99.90
37788;DHT22;23627;53.302;-6.362;2023-02-28T01:45:04;7.40;99.90
37788;DHT22;23627;53.302;-6.362;2023-02-28T01:47:32;7.40;99.90
37788;DHT22;23627;53.302;-6.362;2023-02-28T01:50:00;7.40;99.90
37788;DHT22;23627;53.302;-6.362;2023-02-28T01:52:27;7.40;99.90
37788;DHT22;23627;53.302;-6.362;2023-02-28T01:54:54;7.40;99.90
37788;DHT22;23627;53.302;-6.362;2023-02-28T01:57:22;7.40;99.90
37788;DHT22;23627;53.302;-6.362;2023-02-28T01:59:59;7.40;99.90
37788;DHT22;23627;53.302;-6.362;2023-02-28T02:02:26;7.40;99.90
37788;DHT22;23627;53.302;-6.362;2023-02-28T02:07:21;7.40;99.90
37788;DHT22;23627;53.302;-6.362;2023-02-28T02:09:46;7.40;99.90
37788;DHT22;23627;53.302;-6.362;2023-02-28T02:12:25;7.40;99.90
37788;DHT22;23627;53.302;-6.362;2023-02-28T02:20:08;7.40;99.90
37788;DHT22;23627;53.302;-6.362;2023-02-28T02:22:49;7.40;99.90
37788;DHT22;23627;53.302;-6.362;2023-02-28T02:25:19;7.40;99.90
37788;DHT22;23627;53.302;-6.362;2023-02-28T02:32:51;7.40;99.90
37788;DHT22;23627;53.302;-6.362;2023-02-28T02:35:27;7.30;99.90
37788;DHT22;23627;53.302;-6.362;2023-02-28T02:40:21;7.30;99.90
37788;DHT22;23627;53.302;-6.362;2023-02-28T02:42:49;7.30;99.90
37788;DHT22;23627;53.302;-6.362;2023-02-28T02:47:42;7.30;99.90
37788;DHT22;23627;53.302;-6.362;2023-02-28T02:50:11;7.30;99.90
37788;DHT22;23627;53.302;-6.362;2023-02-28T02:52:38;7.30;99.90
37788;DHT22;23627;53.302;-6.362;2023-02-28T02:55:06;7.30;99.90
37788;DHT22;23627;53.302;-6.362;2023-02-28T02:57:52;7.30;99.90
37788;DHT22;23627;53.302;-6.362;2023-02-28T03:00:20;7.30;99.90
37788;DHT22;23627;53.302;-6.362;2023-02-28T03:02:48;7.30;99.90
37788;DHT22;23627;53.302;-6.362;2023-02-28T03:05:17;7.30;99.90
37788;DHT22;23627;53.302;-6.362;2023-02-28T03:07:44;7.30;99.90
37788;DHT22;23627;53.302;-6.362;2023-02-28T03:10:29;7.30;99.90
37788;DHT22;23627;53.302;-6.362;2023-02-28T03:18:25;7.30;99.90
37788;DHT22;23627;53.302;-6.362;2023-02-28T03:21:04;7.30;99.90
37788;DHT22;23627;53.302;-6.362;2023-02-28T03:26:24;7.30;99.90
37788;DHT22;23627;53.302;-6.362;2023-02-28T03:28:58;7.30;99.90
37788;DHT22;23627;53.302;-6.362;2023-02-28T03:31:30;7.30;99.90
37788;DHT22;23627;53.302;-6.362;2023-02-28T03:34:05;7.30;99.90
37788;DHT22;23627;53.302;-6.362;2023-02-28T03:36:41;7.30;99.90
37788;DHT22;23627;53.302;-6.362;2023-02-28T03:39:13;7.30;99.90
37788;DHT22;23627;53.302;-6.362;2023-02-28T03:41:46;7.30;99.90
37788;DHT22;23627;53.302;-6.362;2023-02-28T03:44:19;7.30;99.90
37788;DHT22;23627;53.302;-6.362;2023-02-28T03:47:32;7.30;99.90
37788;DHT22;23627;53.302;-6.362;2023-02-28T03:49:32;7.30;99.90
37788;DHT22;23627;53.302;-6.362;2023-02-28T03:52:00;7.30;99.90
37788;DHT22;23627;53.302;-6.362;2023-02-28T03:54:30;7.30;99.90
37788;DHT22;23627;53.302;-6.362;2023-02-28T03:57:02;7.30;99.90
37788;DHT22;23627;53.302;-6.362;2023-02-28T03:59:38;7.30;99.90
37788;DHT22;23627;53.302;-6.362;2023-02-28T04:02:04;7.30;99.90
37788;DHT22;23627;53.302;-6.362;2023-02-28T04:04:30;7.30;99.90
37788;DHT22;23627;53.302;-6.362;2023-02-28T04:07:06;7.30;99.90
37788;DHT22;23627;53.302;-6.362;2023-02-28T04:09:32;7.30;99.90
37788;DHT22;23627;53.302;-6.362;2023-02-28T04:11:58;7.20;99.90
37788;DHT22;23627;53.302;-6.362;2023-02-28T04:14:24;7.20;99.90
37788;DHT22;23627;53.302;-6.362;2023-02-28T04:16:49;7.20;99.90
37788;DHT22;23627;53.302;-6.362;2023-02-28T04:19:16;7.20;99.90
37788;DHT22;23627;53.302;-6.362;2023-02-28T04:21:43;7.20;99.90
37788;DHT22;23627;53.302;-6.362;2023-02-28T04:24:09;7.20;99.90
37788;DHT22;23627;53.302;-6.362;2023-02-28T04:26:40;7.20;99.90
37788;DHT22;23627;53.302;-6.362;2023-02-28T04:29:06;7.20;99.90
37788;DHT22;23627;53.302;-6.362;2023-02-28T04:31:32;7.20;99.90
37788;DHT22;23627;53.302;-6.362;2023-02-28T04:33:58;7.20;99.90
37788;DHT22;23627;53.302;-6.362;2023-02-28T04:36:24;7.20;99.90
37788;DHT22;23627;53.302;-6.362;2023-02-28T04:38:50;7.20;99.90
37788;DHT22;23627;53.302;-6.362;2023-02-28T04:41:16;7.20;99.90
37788;DHT22;23627;53.302;-6.362;2023-02-28T04:43:42;7.20;99.90
37788;DHT22;23627;53.302;-6.362;2023-02-28T04:46:07;7.20;99.90
37788;DHT22;23627;53.302;-6.362;2023-02-28T04:48:34;7.20;99.90
37788;DHT22;23627;53.302;-6.362;2023-02-28T04:51:08;7.20;99.90
37788;DHT22;23627;53.302;-6.362;2023-02-28T04:53:35;7.10;99.90
37788;DHT22;23627;53.302;-6.362;2023-02-28T04:56:01;7.10;99.90
37788;DHT22;23627;53.302;-6.362;2023-02-28T04:58:27;7.10;99.90
37788;DHT22;23627;53.302;-6.362;2023-02-28T05:00:53;7.10;99.90
37788;DHT22;23627;53.302;-6.362;2023-02-28T05:03:20;7.10;99.90
37788;DHT22;23627;53.302;-6.362;2023-02-28T05:05:49;7.10;99.90
37788;DHT22;23627;53.302;-6.362;2023-02-28T05:08:14;7.10;99.90
37788;DHT22;23627;53.302;-6.362;2023-02-28T05:10:40;7.10;99.90
37788;DHT22;23627;53.302;-6.362;2023-02-28T05:13:05;7.10;99.90
37788;DHT22;23627;53.302;-6.362;2023-02-28T05:15:31;7.10;99.90
37788;DHT22;23627;53.302;-6.362;2023-02-28T05:17:56;7.10;99.90
37788;DHT22;23627;53.302;-6.362;2023-02-28T05:20:22;7.10;99.90
37788;DHT22;23627;53.302;-6.362;2023-02-28T05:22:49;7.10;99.90
37788;DHT22;23627;53.302;-6.362;2023-02-28T05:25:19;7.10;99.90
37788;DHT22;23627;53.302;-6.362;2023-02-28T05:27:46;7.10;99.90
37788;DHT22;23627;53.302;-6.362;2023-02-28T05:30:12;7.10;99.90
37788;DHT22;23627;53.302;-6.362;2023-02-28T05:37:47;7.00;99.90
37788;DHT22;23627;53.302;-6.362;2023-02-28T05:40:12;7.00;99.90
37788;DHT22;23627;53.302;-6.362;2023-02-28T05:42:38;6.90;99.90
37788;DHT22;23627;53.302;-6.362;2023-02-28T05:45:04;6.90;99.90
37788;DHT22;23627;53.302;-6.362;2023-02-28T05:47:30;6.90;99.90
37788;DHT22;23627;53.302;-6.362;2023-02-28T05:49:56;6.90;99.90
37788;DHT22;23627;53.302;-6.362;2023-02-28T05:52:22;6.90;99.90
37788;DHT22;23627;53.302;-6.362;2023-02-28T05:54:48;6.90;99.90
37788;DHT22;23627;53.302;-6.362;2023-02-28T05:57:13;6.90;99.90
37788;DHT22;23627;53.302;-6.362;2023-02-28T05:59:39;6.90;99.90
37788;DHT22;23627;53.302;-6.362;2023-02-28T06:02:06;6.90;99.90
37788;DHT22;23627;53.302;-6.362;2023-02-28T06:04:35;6.90;99.90
37788;DHT22;23627;53.302;-6.362;2023-02-28T06:07:00;6.90;99.90
37788;DHT22;23627;53.302;-6.362;2023-02-28T06:09:27;6.90;99.90
37788;DHT22;23627;53.302;-6.362;2023-02-28T06:11:52;6.90;99.90
37788;DHT22;23627;53.302;-6.362;2023-02-28T06:14:19;6.80;99.90
37788;DHT22;23627;53.302;-6.362;2023-02-28T06:16:45;6.90;99.90
37788;DHT22;23627;53.302;-6.362;2023-02-28T06:19:11;6.80;99.90
37788;DHT22;23627;53.302;-6.362;2023-02-28T06:21:36;6.80;99.90
37788;DHT22;23627;53.302;-6.362;2023-02-28T06:24:02;6.80;99.90
37788;DHT22;23627;53.302;-6.362;2023-02-28T06:26:28;6.80;99.90
37788;DHT22;23627;53.302;-6.362;2023-02-28T06:28:54;6.80;99.90
37788;DHT22;23627;53.302;-6.362;2023-02-28T06:31:20;6.80;99.90
37788;DHT22;23627;53.302;-6.362;2023-02-28T06:33:46;6.80;99.90
37788;DHT22;23627;53.302;-6.362;2023-02-28T06:36:12;6.80;99.90
37788;DHT22;23627;53.302;-6.362;2023-02-28T06:38:39;6.80;99.90
37788;DHT22;23627;53.302;-6.362;2023-02-28T06:41:05;6.80;99.90
37788;DHT22;23627;53.302;-6.362;2023-02-28T06:43:32;6.80;99.90
37788;DHT22;23627;53.302;-6.362;2023-02-28T06:45:58;6.80;99.90
37788;DHT22;23627;53.302;-6.362;2023-02-28T06:48:25;6.80;99.90
37788;DHT22;23627;53.302;-6.362;2023-02-28T06:50:51;6.80;99.90
37788;DHT22;23627;53.302;-6.362;2023-02-28T06:53:17;6.80;99.90
37788;DHT22;23627;53.302;-6.362;2023-02-28T06:55:42;6.80;99.90
37788;DHT22;23627;53.302;-6.362;2023-02-28T06:58:08;6.80;99.90
37788;DHT22;23627;53.302;-6.362;2023-02-28T07:00:40;6.90;99.90
37788;DHT22;23627;53.302;-6.362;2023-02-28T07:03:06;6.90;99.90
37788;DHT22;23627;53.302;-6.362;2023-02-28T07:05:34;6.90;99.90
37788;DHT22;23627;53.302;-6.362;2023-02-28T07:07:59;6.90;99.90
37788;DHT22;23627;53.302;-6.362;2023-02-28T07:10:25;6.90;99.90
37788;DHT22;23627;53.302;-6.362;2023-02-28T07:12:50;6.90;99.90
37788;DHT22;23627;53.302;-6.362;2023-02-28T07:15:16;6.90;99.90
37788;DHT22;23627;53.302;-6.362;2023-02-28T07:17:42;7.00;99.90
37788;DHT22;23627;53.302;-6.362;2023-02-28T07:20:08;7.00;99.90
37788;DHT22;23627;53.302;-6.362;2023-02-28T07:22:33;7.00;99.90
37788;DHT22;23627;53.302;-6.362;2023-02-28T07:24:59;7.00;99.90
37788;DHT22;23627;53.302;-6.362;2023-02-28T07:27:25;7.00;99.90
37788;DHT22;23627;53.302;-6.362;2023-02-28T07:29:51;7.00;99.90
37788;DHT22;23627;53.302;-6.362;2023-02-28T07:32:16;7.00;99.90
37788;DHT22;23627;53.302;-6.362;2023-02-28T07:34:42;7.00;99.90
37788;DHT22;23627;53.302;-6.362;2023-02-28T07:37:08;7.00;99.90
37788;DHT22;23627;53.302;-6.362;2023-02-28T07:39:33;7.00;99.90
37788;DHT22;23627;53.302;-6.362;2023-02-28T07:41:59;7.00;99.90
37788;DHT22;23627;53.302;-6.362;2023-02-28T07:44:25;7.00;99.90
37788;DHT22;23627;53.302;-6.362;2023-02-28T07:46:51;7.00;99.90
37788;DHT22;23627;53.302;-6.362;2023-02-28T07:49:17;7.00;99.90
37788;DHT22;23627;53.302;-6.362;2023-02-28T07:51:43;7.00;99.90
37788;DHT22;23627;53.302;-6.362;2023-02-28T07:54:09;6.90;99.90
37788;DHT22;23627;53.302;-6.362;2023-02-28T07:56:34;6.90;99.90
37788;DHT22;23627;53.302;-6.362;2023-02-28T07:59:00;6.90;99.90
37788;DHT22;23627;53.302;-6.362;2023-02-28T08:01:26;6.90;99.90
37788;DHT22;23627;53.302;-6.362;2023-02-28T08:03:52;6.90;99.90
37788;DHT22;23627;53.302;-6.362;2023-02-28T08:06:21;6.80;99.90
37788;DHT22;23627;53.302;-6.362;2023-02-28T08:08:47;6.90;99.90
37788;DHT22;23627;53.302;-6.362;2023-02-28T08:11:16;6.80;99.90
37788;DHT22;23627;53.302;-6.362;2023-02-28T08:13:43;6.80;99.90
37788;DHT22;23627;53.302;-6.362;2023-02-28T08:16:09;6.80;99.90
37788;DHT22;23627;53.302;-6.362;2023-02-28T08:18:34;6.80;99.90
37788;DHT22;23627;53.302;-6.362;2023-02-28T08:21:05;6.90;99.90
37788;DHT22;23627;53.302;-6.362;2023-02-28T08:23:31;6.90;99.90
37788;DHT22;23627;53.302;-6.362;2023-02-28T08:25:58;6.90;99.90
37788;DHT22;23627;53.302;-6.362;2023-02-28T08:28:24;6.90;99.90
37788;DHT22;23627;53.302;-6.362;2023-02-28T08:30:49;7.00;99.90
37788;DHT22;23627;53.302;-6.362;2023-02-28T08:33:15;7.00;99.90
37788;DHT22;23627;53.302;-6.362;2023-02-28T08:35:41;7.00;99.90
37788;DHT22;23627;53.302;-6.362;2023-02-28T08:38:06;7.00;99.90
37788;DHT22;23627;53.302;-6.362;2023-02-28T08:40:32;7.00;99.90
37788;DHT22;23627;53.302;-6.362;2023-02-28T08:42:58;7.10;99.90
37788;DHT22;23627;53.302;-6.362;2023-02-28T08:45:25;7.10;99.90
37788;DHT22;23627;53.302;-6.362;2023-02-28T08:47:50;7.10;99.90
37788;DHT22;23627;53.302;-6.362;2023-02-28T08:50:17;7.10;99.90
37788;DHT22;23627;53.302;-6.362;2023-02-28T08:52:43;7.10;99.90
37788;DHT22;23627;53.302;-6.362;2023-02-28T08:55:09;7.20;99.90
37788;DHT22;23627;53.302;-6.362;2023-02-28T08:57:35;7.20;99.90
37788;DHT22;23627;53.302;-6.362;2023-02-28T09:00:00;7.20;99.90
37788;DHT22;23627;53.302;-6.362;2023-02-28T09:02:30;7.20;99.90
37788;DHT22;23627;53.302;-6.362;2023-02-28T09:04:55;7.30;99.90
37788;DHT22;23627;53.302;-6.362;2023-02-28T09:07:21;7.30;99.90
37788;DHT22;23627;53.302;-6.362;2023-02-28T09:09:46;7.30;99.90
37788;DHT22;23627;53.302;-6.362;2023-02-28T09:12:26;7.40;99.90
37788;DHT22;23627;53.302;-6.362;2023-02-28T09:14:52;7.40;99.90
37788;DHT22;23627;53.302;-6.362;2023-02-28T09:17:18;7.40;99.90
37788;DHT22;23627;53.302;-6.362;2023-02-28T09:19:44;7.50;99.90
37788;DHT22;23627;53.302;-6.362;2023-02-28T09:22:10;7.50;99.90
37788;DHT22;23627;53.302;-6.362;2023-02-28T09:24:36;7.50;99.90
37788;DHT22;23627;53.302;-6.362;2023-02-28T09:27:02;7.50;99.90
37788;DHT22;23627;53.302;-6.362;2023-02-28T09:29:28;7.60;99.90
37788;DHT22;23627;53.302;-6.362;2023-02-28T09:31:54;7.60;99.90
37788;DHT22;23627;53.302;-6.362;2023-02-28T09:34:20;7.60;99.90
37788;DHT22;23627;53.302;-6.362;2023-02-28T09:36:45;7.60;99.90
37788;DHT22;23627;53.302;-6.362;2023-02-28T09:39:11;7.60;99.90
37788;DHT22;23627;53.302;-6.362;2023-02-28T09:41:38;7.70;99.90
37788;DHT22;23627;53.302;-6.362;2023-02-28T09:44:37;7.70;99.90
37788;DHT22;23627;53.302;-6.362;2023-02-28T09:47:05;7.70;99.90
37788;DHT22;23627;53.302;-6.362;2023-02-28T09:49:38;7.80;99.90
37788;DHT22;23627;53.302;-6.362;2023-02-28T09:52:07;7.80;99.90
37788;DHT22;23627;53.302;-6.362;2023-02-28T09:54:34;7.80;99.90
37788;DHT22;23627;53.302;-6.362;2023-02-28T10:04:40;8.00;99.90
37788;DHT22;23627;53.302;-6.362;2023-02-28T10:07:18;8.00;99.90
37788;DHT22;23627;53.302;-6.362;2023-02-28T10:09:47;8.00;99.90
37788;DHT22;23627;53.302;-6.362;2023-02-28T10:12:16;8.00;99.90
37788;DHT22;23627;53.302;-6.362;2023-02-28T10:14:43;8.10;99.90
37788;DHT22;23627;53.302;-6.362;2023-02-28T10:17:11;8.10;99.90
37788;DHT22;23627;53.302;-6.362;2023-02-28T10:19:40;8.10;99.90
37788;DHT22;23627;53.302;-6.362;2023-02-28T10:22:14;8.20;99.90
37788;DHT22;23627;53.302;-6.362;2023-02-28T10:24:45;8.20;99.90
37788;DHT22;23627;53.302;-6.362;2023-02-28T10:27:19;8.30;99.90
37788;DHT22;23627;53.302;-6.362;2023-02-28T10:29:47;8.30;99.90
37788;DHT22;23627;53.302;-6.362;2023-02-28T10:32:14;8.30;99.90
37788;DHT22;23627;53.302;-6.362;2023-02-28T10:34:41;8.30;99.90
37788;DHT22;23627;53.302;-6.362;2023-02-28T10:37:06;8.30;99.90
37788;DHT22;23627;53.302;-6.362;2023-02-28T10:42:04;8.30;99.90
37788;DHT22;23627;53.302;-6.362;2023-02-28T10:44:30;8.30;99.90
37788;DHT22;23627;53.302;-6.362;2023-02-28T10:46:56;8.40;99.90
37788;DHT22;23627;53.302;-6.362;2023-02-28T10:49:28;8.40;99.90
37788;DHT22;23627;53.302;-6.362;2023-02-28T10:51:58;8.40;99.90
37788;DHT22;23627;53.302;-6.362;2023-02-28T10:54:26;8.40;99.90
37788;DHT22;23627;53.302;-6.362;2023-02-28T10:57:14;8.40;99.90
37788;DHT22;23627;53.302;-6.362;2023-02-28T10:59:40;8.30;99.90
37788;DHT22;23627;53.302;-6.362;2023-02-28T11:04:50;8.30;99.90
37788;DHT22;23627;53.302;-6.362;2023-02-28T11:09:44;8.30;99.90
37788;DHT22;23627;53.302;-6.362;2023-02-28T11:12:22;8.30;99.90
37788;DHT22;23627;53.302;-6.362;2023-02-28T11:14:49;8.30;99.90
37788;DHT22;23627;53.302;-6.362;2023-02-28T11:17:20;8.30;99.90
37788;DHT22;23627;53.302;-6.362;2023-02-28T11:19:47;8.30;99.90
37788;DHT22;23627;53.302;-6.362;2023-02-28T11:22:19;8.30;99.90
37788;DHT22;23627;53.302;-6.362;2023-02-28T11:24:47;8.40;99.90
37788;DHT22;23627;53.302;-6.362;2023-02-28T11:29:59;8.50;99.90
37788;DHT22;23627;53.302;-6.362;2023-02-28T11:32:28;8.50;99.90
37788;DHT22;23627;53.302;-6.362;2023-02-28T11:37:36;8.50;99.90
37788;DHT22;23627;53.302;-6.362;2023-02-28T11:40:05;8.50;99.90
37788;DHT22;23627;53.302;-6.362;2023-02-28T11:45:38;8.60;99.90
37788;DHT22;23627;53.302;-6.362;2023-02-28T11:52:48;8.70;99.90
37788;DHT22;23627;53.302;-6.362;2023-02-28T11:55:33;8.70;99.90
37788;DHT22;23627;53.302;-6.362;2023-02-28T12:05:26;8.80;99.90
37788;DHT22;23627;53.302;-6.362;2023-02-28T12:10:44;8.50;99.90
37788;DHT22;23627;53.302;-6.362;2023-02-28T12:13:29;8.50;99.90
37788;DHT22;23627;53.302;-6.362;2023-02-28T12:18:44;8.50;99.90
37788;DHT22;23627;53.302;-6.362;2023-02-28T12:21:27;8.50;99.90
37788;DHT22;23627;53.302;-6.362;2023-02-28T12:24:14;8.50;99.90
37788;DHT22;23627;53.302;-6.362;2023-02-28T12:26:44;8.60;99.90
37788;DHT22;23627;53.302;-6.362;2023-02-28T12:29:16;8.70;99.90
37788;DHT22;23627;53.302;-6.362;2023-02-28T12:34:28;8.80;99.90
37788;DHT22;23627;53.302;-6.362;2023-02-28T12:36:57;8.90;99.90
37788;DHT22;23627;53.302;-6.362;2023-02-28T12:39:28;8.90;99.90
37788;DHT22;23627;53.302;-6.362;2023-02-28T12:42:01;8.90;99.90
37788;DHT22;23627;53.302;-6.362;2023-02-28T12:44:36;8.90;99.90
37788;DHT22;23627;53.302;-6.362;2023-02-28T12:47:05;8.90;99.90
37788;DHT22;23627;53.302;-6.362;2023-02-28T12:49:36;8.90;99.90
37788;DHT22;23627;53.302;-6.362;2023-02-28T12:52:03;8.90;99.90
37788;DHT22;23627;53.302;-6.362;2023-02-28T13:00:24;8.70;99.90
37788;DHT22;23627;53.302;-6.362;2023-02-28T13:05:35;8.50;99.90
37788;DHT22;23627;53.302;-6.362;2023-02-28T13:10:40;8.60;99.90
37788;DHT22;23627;53.302;-6.362;2023-02-28T13:13:10;8.60;99.90
37788;DHT22;23627;53.302;-6.362;2023-02-28T13:15:38;8.60;99.90
37788;DHT22;23627;53.302;-6.362;2023-02-28T13:18:20;8.70;99.90
37788;DHT22;23627;53.302;-6.362;2023-02-28T13:20:51;8.70;99.90
37788;DHT22;23627;53.302;-6.362;2023-02-28T13:23:37;8.70;99.90
37788;DHT22;23627;53.302;-6.362;2023-02-28T13:26:03;8.60;99.90
37788;DHT22;23627;53.302;-6.362;2023-02-28T13:31:13;8.40;99.90
37788;DHT22;23627;53.302;-6.362;2023-02-28T13:36:26;8.30;99.90
37788;DHT22;23627;53.302;-6.362;2023-02-28T13:44:04;8.20;99.90
37788;DHT22;23627;53.302;-6.362;2023-02-28T13:46:30;8.10;99.90
37788;DHT22;23627;53.302;-6.362;2023-02-28T13:48:57;8.20;99.90
37788;DHT22;23627;53.302;-6.362;2023-02-28T13:51:43;8.10;99.90
37788;DHT22;23627;53.302;-6.362;2023-02-28T13:54:15;8.10;99.90
37788;DHT22;23627;53.302;-6.362;2023-02-28T13:56:51;8.10;99.90
37788;DHT22;23627;53.302;-6.362;2023-02-28T13:59:36;8.00;99.90
37788;DHT22;23627;53.302;-6.362;2023-02-28T14:07:18;8.00;99.90
37788;DHT22;23627;53.302;-6.362;2023-02-28T14:10:20;8.00;99.90
37788;DHT22;23627;53.302;-6.362;2023-02-28T14:12:55;8.00;99.90
37788;DHT22;23627;53.302;-6.362;2023-02-28T14:17:56;7.90;99.90
37788;DHT22;23627;53.302;-6.362;2023-02-28T14:20:24;7.90;99.90
37788;DHT22;23627;53.302;-6.362;2023-02-28T14:22:57;7.90;99.90
37788;DHT22;23627;53.302;-6.362;2023-02-28T14:25:33;7.90;99.90
37788;DHT22;23627;53.302;-6.362;2023-02-28T14:30:43;8.00;99.90
37788;DHT22;23627;53.302;-6.362;2023-02-28T14:36:03;8.00;99.90
37788;DHT22;23627;53.302;-6.362;2023-02-28T14:38:31;8.00;99.90
37788;DHT22;23627;53.302;-6.362;2023-02-28T14:40:58;8.00;99.90
37788;DHT22;23627;53.302;-6.362;2023-02-28T14:43:26;7.90;99.90
37788;DHT22;23627;53.302;-6.362;2023-02-28T14:45:53;7.90;99.90
37788;DHT22;23627;53.302;-6.362;2023-02-28T14:48:20;7.80;99.90
37788;DHT22;23627;53.302;-6.362;2023-02-28T14:50:51;7.90;99.90
37788;DHT22;23627;53.302;-6.362;2023-02-28T14:53:21;7.90;99.90
37788;DHT22;23627;53.302;-6.362;2023-02-28T14:55:47;7.80;99.90
37788;DHT22;23627;53.302;-6.362;2023-02-28T14:58:27;7.80;99.90
37788;DHT22;23627;53.302;-6.362;2023-02-28T15:00:54;7.80;99.90
37788;DHT22;23627;53.302;-6.362;2023-02-28T15:03:21;7.80;99.90
37788;DHT22;23627;53.302;-6.362;2023-02-28T15:05:57;7.80;99.90
37788;DHT22;23627;53.302;-6.362;2023-02-28T15:08:23;7.80;99.90
37788;DHT22;23627;53.302;-6.362;2023-02-28T15:10:53;7.80;99.90
37788;DHT22;23627;53.302;-6.362;2023-02-28T15:13:19;7.80;99.90
37788;DHT22;23627;53.302;-6.362;2023-02-28T15:18:22;7.70;99.90
37788;DHT22;23627;53.302;-6.362;2023-02-28T15:20:49;7.70;99.90
37788;DHT22;23627;53.302;-6.362;2023-02-28T15:23:15;7.70;99.90
37788;DHT22;23627;53.302;-6.362;2023-02-28T15:25:41;7.70;99.90
37788;DHT22;23627;53.302;-6.362;2023-02-28T15:28:14;7.60;99.90
37788;DHT22;23627;53.302;-6.362;2023-02-28T15:30:49;7.60;99.90
37788;DHT22;23627;53.302;-6.362;2023-02-28T15:33:20;7.60;99.90
37788;DHT22;23627;53.302;-6.362;2023-02-28T15:35:46;7.50;99.90
37788;DHT22;23627;53.302;-6.362;2023-02-28T15:38:14;7.50;99.90
37788;DHT22;23627;53.302;-6.362;2023-02-28T15:40:42;7.50;99.90
37788;DHT22;23627;53.302;-6.362;2023-02-28T15:43:15;7.50;99.90
37788;DHT22;23627;53.302;-6.362;2023-02-28T15:45:44;7.50;99.90
37788;DHT22;23627;53.302;-6.362;2023-02-28T15:48:15;7.40;99.90
37788;DHT22;23627;53.302;-6.362;2023-02-28T15:50:41;7.50;99.90
37788;DHT22;23627;53.302;-6.362;2023-02-28T15:53:17;7.40;99.90
37788;DHT22;23627;53.302;-6.362;2023-02-28T15:55:44;7.40;99.90
37788;DHT22;23627;53.302;-6.362;2023-02-28T15:58:10;7.40;99.90
37788;DHT22;23627;53.302;-6.362;2023-02-28T16:00:38;7.40;99.90
37788;DHT22;23627;53.302;-6.362;2023-02-28T16:03:23;7.30;99.90
37788;DHT22;23627;53.302;-6.362;2023-02-28T16:06:07;7.40;99.90
37788;DHT22;23627;53.302;-6.362;2023-02-28T16:08:32;7.30;99.90
37788;DHT22;23627;53.302;-6.362;2023-02-28T16:10:58;7.40;99.90
37788;DHT22;23627;53.302;-6.362;2023-02-28T16:13:24;7.30;99.90
37788;DHT22;23627;53.302;-6.362;2023-02-28T16:15:49;7.30;99.90
37788;DHT22;23627;53.302;-6.362;2023-02-28T16:18:16;7.30;99.90
37788;DHT22;23627;53.302;-6.362;2023-02-28T16:20:42;7.30;99.90
37788;DHT22;23627;53.302;-6.362;2023-02-28T16:23:09;7.30;99.90
37788;DHT22;23627;53.302;-6.362;2023-02-28T16:25:39;7.30;99.90
37788;DHT22;23627;53.302;-6.362;2023-02-28T16:30:43;7.20;99.90
37788;DHT22;23627;53.302;-6.362;2023-02-28T16:33:09;7.20;99.90
37788;DHT22;23627;53.302;-6.362;2023-02-28T16:35:34;7.20;99.90
37788;DHT22;23627;53.302;-6.362;2023-02-28T16:38:00;7.20;99.90
37788;DHT22;23627;53.302;-6.362;2023-02-28T16:40:26;7.20;99.90
37788;DHT22;23627;53.302;-6.362;2023-02-28T16:42:55;7.20;99.90
37788;DHT22;23627;53.302;-6.362;2023-02-28T16:45:24;7.10;99.90
37788;DHT22;23627;53.302;-6.362;2023-02-28T16:47:50;7.10;99.90
37788;DHT22;23627;53.302;-6.362;2023-02-28T16:50:20;7.10;99.90
37788;DHT22;23627;53.302;-6.362;2023-02-28T16:52:45;7.10;99.90
37788;DHT22;23627;53.302;-6.362;2023-02-28T16:55:11;7.10;99.90
37788;DHT22;23627;53.302;-6.362;2023-02-28T16:57:37;7.10;99.90
37788;DHT22;23627;53.302;-6.362;2023-02-28T17:00:03;7.10;99.90
37788;DHT22;23627;53.302;-6.362;2023-02-28T17:02:29;7.00;99.90
37788;DHT22;23627;53.302;-6.362;2023-02-28T17:04:55;7.00;99.90
37788;DHT22;23627;53.302;-6.362;2023-02-28T17:07:26;7.00;99.90
37788;DHT22;23627;53.302;-6.362;2023-02-28T17:09:52;7.00;99.90
37788;DHT22;23627;53.302;-6.362;2023-02-28T17:12:20;7.00;99.90
37788;DHT22;23627;53.302;-6.362;2023-02-28T17:14:46;7.00;99.90
37788;DHT22;23627;53.302;-6.362;2023-02-28T17:17:18;7.00;99.90
37788;DHT22;23627;53.302;-6.362;2023-02-28T17:19:45;7.00;99.90
37788;DHT22;23627;53.302;-6.362;2023-02-28T17:22:12;6.90;99.90
37788;DHT22;23627;53.302;-6.362;2023-02-28T17:24:38;6.90;99.90
37788;DHT22;23627;53.302;-6.362;2023-02-28T17:27:04;6.90;99.90
37788;DHT22;23627;53.302;-6.362;2023-02-28T17:29:29;6.90;99.90
37788;DHT22;23627;53.302;-6.362;2023-02-28T17:31:55;6.90;99.90